Aérodrome de Castelnaudary-Villeneuve

LFMW · Occitanie, 法国

此METAR来自2022年8月15日 11:00. 最近的
罗盘
风向 的 Aérodrome de Castelnaudary-Villeneuve 11/29
风: 2 kt, 1 beaufort

1 kt

2 kt
改变
0 2.000 4.000 6.000 8.000 10.000
FEW 6.000 ft
METAR LESU 150900Z VRB02KT 9999 FEW060 23/14 Q1012

METAR Aérodrome de Castelnaudary-Villeneuve - LFMW

Aérodrome de Castelnaudary-Villeneuve是Castelnaudary Villeneuve,法国中的小机场。 该机场有一条跑道: 11/29. 该领域的国际民航组织标志是LFMW.

这份报告是针对2022年8月15日 11:00, 当地时间在Pirineus - la Seu d'Urgel Airport进行的。

机场观察

可变方向的风很小或没有风。

可见度为10 km 或者更多。

有几云在6.000 ft的高度。 没有观察到天花板。

温度和风寒是23 °C。 露点为14 °C,相对湿度为57%。 海平面上的气压为1012 hPa (QNH)。

白天

今天,太阳从07:52升起,在19:30降落。 这适用于Aérodrome de Castelnaudary-Villeneuve,世界夏令时可能有所不同。 当地时间与世界标准时间之间的时差为+2 小时。 夏令时目前正在进行中。

公司介绍

在这个机场,你可以找到飞行俱乐部。 这个机场上的公司有Aéroclub J. Doudies Castelnaudary 和 Aéro-Club des Personnels de l'ENAC de Castelnaudar。

体会

到Vliegles.nl去找飞行课程,跳伞和其他飞行体验。 浏览页面,了解Aérodrome de Castelnaudary-Villeneuve附近所有可用的活动。 你也可以使用搜索功能来寻找你所在地附近的特定飞行课程、跳伞或其他飞行体验。

跑道

Id 标题 侧风 逆风 侧风 %
11/29 110°-290° 2 kt 94 %

逆风成分最大的方向会被突出显示,并用于横风计算。 这并不一定意味着这个方向在使用。

乌云

6.000 ft FEW 几云

温度 & 天气

温度 23 °C
露点 14 °C
相对湿度 57%
Kp-index 1 (0-9)

白天

日出
07:01
中午
13:58
日落
20:56

小工具

你想在你的网站上有一个关于Aérodrome de Castelnaudary-Villeneuve的当前航空天气(METAR)的小部件吗?

</> 显示HTML代码

我们和第三方通过cookies跟踪您在我们网站上的上网行为。如果您继续,我们认为您同意我们的cookie政策。 了解更多